createdAt,value
2022-10-02T19:57:40.281Z,81.72
2022-10-02T20:00:44.150Z,79.55
2022-10-02T20:03:48.720Z,78.50
2022-10-02T20:06:59.259Z,77.84
2022-10-02T20:10:07.179Z,77.28
2022-10-02T20:13:18.263Z,77.24
2022-10-02T20:16:41.525Z,77.28
2022-10-02T20:19:50.824Z,76.71
2022-10-02T20:22:58.826Z,76.50
2022-10-02T20:26:08.873Z,75.79
2022-10-02T20:29:20.737Z,75.61
2022-10-02T20:32:29.901Z,75.39
2022-10-02T20:35:38.320Z,74.97
2022-10-02T20:38:47.891Z,75.38
2022-10-02T20:41:57.567Z,74.53
2022-10-02T20:45:02.498Z,74.05
2022-10-02T20:49:06.292Z,74.44
2022-10-02T20:52:34.666Z,75.05
2022-10-02T20:55:43.502Z,74.99
2022-10-02T20:59:14.283Z,75.55
2022-10-02T21:02:36.270Z,75.56
2022-10-02T21:05:58.299Z,75.20
2022-10-02T21:09:27.843Z,75.82
2022-10-02T21:13:07.285Z,75.51
2022-10-02T21:16:47.435Z,75.44
2022-10-02T21:20:49.701Z,75.40
2022-10-02T21:24:17.393Z,75.60
2022-10-02T21:28:04.303Z,75.75
2022-10-02T21:31:24.886Z,75.98
2022-10-02T21:34:42.185Z,75.70
2022-10-02T21:38:00.167Z,75.75
2022-10-02T21:41:48.640Z,76.09
2022-10-02T21:45:46.754Z,76.31
2022-10-02T21:49:45.919Z,76.34
2022-10-02T21:53:33.557Z,76.58
2022-10-02T21:57:31.603Z,76.58
2022-10-02T22:00:56.338Z,76.72
2022-10-02T22:04:40.798Z,76.55
2022-10-02T22:07:51.410Z,76.23
2022-10-02T22:11:12.121Z,76.04
2022-10-02T22:14:23.463Z,76.53
2022-10-02T22:17:33.035Z,75.95
2022-10-02T22:20:58.645Z,76.31
2022-10-02T22:24:18.859Z,76.89
2022-10-02T22:27:50.832Z,76.69
2022-10-02T22:31:15.948Z,77.15
2022-10-02T22:34:36.524Z,76.77
2022-10-02T22:37:59.743Z,77.19
2022-10-02T22:41:08.178Z,77.03
2022-10-02T22:44:22.990Z,77.15
2022-10-02T22:47:32.273Z,76.81
2022-10-02T22:50:48.149Z,77.00
2022-10-02T22:53:59.680Z,77.22
2022-10-02T22:57:14.790Z,77.54
2022-10-02T23:00:22.485Z,77.26
2022-10-02T23:03:34.234Z,77.94
2022-10-02T23:06:45.122Z,78.04
2022-10-02T23:09:57.594Z,77.72
2022-10-02T23:13:12.513Z,77.95
2022-10-02T23:16:26.252Z,77.83
2022-10-02T23:19:40.324Z,78.29
2022-10-02T23:22:52.190Z,78.09
2022-10-02T23:26:02.070Z,77.73
2022-10-02T23:29:19.937Z,77.71
2022-10-02T23:32:31.554Z,77.53
2022-10-02T23:35:40.059Z,77.69
2022-10-02T23:38:51.590Z,77.81
2022-10-02T23:41:59.436Z,77.49
2022-10-02T23:45:10.420Z,77.77
2022-10-02T23:48:16.351Z,77.71
2022-10-02T23:51:31.488Z,77.63
2022-10-02T23:54:49.637Z,77.67
2022-10-02T23:58:16.757Z,77.87
